Alexandria, Louisiana
Current Conditions -  °F | °C
As of 4:45 AM on Saturday 25 Oct 2014 (Local Time) from KAEX Reporting Station
Haze Haze  
Wind Chill: 47°   Ceiling: Unl
Heat Index: 47°   Visibility: 3mi
Dew Point: 46°   Wind: 0mph
Humidity: 97%   Direction: NA
Pressure: 30.12"   Gusts: NA
Location:  31.31°N, 92.44°W
Report Text: KAEX 250945Z AUTO 00000KT 3SM BR SCT001 08/08 A3012 RMK AO2 T00830078 $
Loading
Personal Weather Stations






























Interactive Weather Map
Tropical Storm Tracking
New forecast layout! Learn more

10-Day Weather Forecast

Advertisements
Track Severe Weather on mobile